Lucas Paul — WDJ6498 — position and weather

sailwx.info

Track history (hours):
 
Tides and Currents Weather Stations Pressure Air Temp Water Temp Dewpoint Dewpoint Depression Visibility Wind Speed Wind Dir Waves Ship Positions

Lucas Paul

Owner: Devall Towing Third Generation, sulphur, LA. More information available from US FCC via Universal Licensing System and Coast Guard Vessel Documentation Center.

Last reported at 2018-Jun-25 08:44 UTC. Time now 2018-Jun-25 09:31 UTC.
Position N 29°47' W 095°06'.

Length 20 m.

Type: Towing. MMSI: 367798350.

Date/timePositionNaut miles runAvg speedWind from/ knotsBaromVisibWave heightAir tempDewpointWater temp
2018-Jun-25 08:44N 29°47' W 095°06'0 0.0
2018-Jun-25 08:19N 29°47' W 095°06'0 0.0
2018-Jun-25 07:06N 29°47' W 095°06'0 0.0
2018-Jun-25 05:49N 29°47' W 095°06'0 0.0
2018-Jun-25 05:28N 29°47' W 095°06'0 0.0
2018-Jun-25 04:47N 29°47' W 095°06'0 0.0
2018-Jun-25 04:29N 29°47' W 095°06'0 0.0
2018-Jun-25 03:57N 29°47' W 095°06'0 0.0
2018-Jun-25 02:51N 29°47' W 095°06'0 0.0
2018-Jun-25 02:28N 29°47' W 095°06'0 0.0
2018-Jun-25 01:40N 29°47' W 095°06'1 0.1
2018-Jun-24 20:12N 29°46' W 095°06'1 1.8
2018-Jun-24 19:46N 29°46' W 095°05'2 6.2
2018-Jun-24 19:30N 29°45' W 095°04'3 6.2
2018-Jun-24 19:00N 29°43' W 095°01'3 6.3
2018-Jun-24 18:30N 29°40' W 094°59'4 7.1
2018-Jun-24 18:00N 29°37' W 094°57'4 7.1
2018-Jun-24 17:30N 29°34' W 094°55'4 7.0
2018-Jun-24 17:00N 29°31' W 094°53'5 7.2
2018-Jun-24 16:22N 29°27' W 094°51'2 6.2
2018-Jun-24 16:00N 29°25' W 094°50'3 6.8
2018-Jun-24 15:30N 29°22' W 094°48'6 6.0
2018-Jun-24 14:34N 29°18' W 094°53'1 7.1
2018-Jun-24 14:30N 29°18' W 094°53'3 6.0
2018-Jun-24 14:00N 29°17' W 094°57'2 4.4
2018-Jun-24 13:29N 29°16' W 094°59'0 0.0
2018-Jun-24 13:00N 29°16' W 094°59'2 4.4
2018-Jun-24 12:30N 29°15' W 095°01'3 5.8
2018-Jun-24 12:00N 29°12' W 095°03'3 6.0
2018-Jun-24 11:30N 29°11' W 095°06'3 6.3
2018-Jun-24 11:00N 29°09' W 095°09'3 6.8
2018-Jun-24 10:30N 29°07' W 095°12'96 3.5
2018-Jun-23 07:18N 28°39' W 096°57'  
Track history (hours):
 
Tides and Currents Weather Stations Pressure Air Temp Water Temp Dewpoint Dewpoint Depression Visibility Wind Speed Wind Dir Waves Ship Positions

Lucas Paul

Owner: Devall Towing Third Generation, sulphur, LA. More information available from US FCC via Universal Licensing System and Coast Guard Vessel Documentation Center.

Last reported at 2018-Jun-25 08:44 UTC. Time now 2018-Jun-25 09:31 UTC.
Position N 29°47' W 095°06'.

Length 20 m.

Type: Towing. MMSI: 367798350.

Date/timePositionNaut miles runAvg speedWind from/ knotsBaromVisibWave heightAir tempDewpointWater temp
2018-Jun-25 08:44N 29°47' W 095°06'0 0.0
2018-Jun-25 08:19N 29°47' W 095°06'0 0.0
2018-Jun-25 07:06N 29°47' W 095°06'0 0.0
2018-Jun-25 05:49N 29°47' W 095°06'0 0.0
2018-Jun-25 05:28N 29°47' W 095°06'0 0.0
2018-Jun-25 04:47N 29°47' W 095°06'0 0.0
2018-Jun-25 04:29N 29°47' W 095°06'0 0.0
2018-Jun-25 03:57N 29°47' W 095°06'0 0.0
2018-Jun-25 02:51N 29°47' W 095°06'0 0.0
2018-Jun-25 02:28N 29°47' W 095°06'0 0.0
2018-Jun-25 01:40N 29°47' W 095°06'1 0.1
2018-Jun-24 20:12N 29°46' W 095°06'1 1.8
2018-Jun-24 19:46N 29°46' W 095°05'2 6.2
2018-Jun-24 19:30N 29°45' W 095°04'3 6.2
2018-Jun-24 19:00N 29°43' W 095°01'3 6.3
2018-Jun-24 18:30N 29°40' W 094°59'4 7.1
2018-Jun-24 18:00N 29°37' W 094°57'4 7.1
2018-Jun-24 17:30N 29°34' W 094°55'4 7.0
2018-Jun-24 17:00N 29°31' W 094°53'5 7.2
2018-Jun-24 16:22N 29°27' W 094°51'2 6.2
2018-Jun-24 16:00N 29°25' W 094°50'3 6.8
2018-Jun-24 15:30N 29°22' W 094°48'6 6.0
2018-Jun-24 14:34N 29°18' W 094°53'1 7.1
2018-Jun-24 14:30N 29°18' W 094°53'3 6.0
2018-Jun-24 14:00N 29°17' W 094°57'2 4.4
2018-Jun-24 13:29N 29°16' W 094°59'0 0.0
2018-Jun-24 13:00N 29°16' W 094°59'2 4.4
2018-Jun-24 12:30N 29°15' W 095°01'3 5.8
2018-Jun-24 12:00N 29°12' W 095°03'3 6.0
2018-Jun-24 11:30N 29°11' W 095°06'3 6.3
2018-Jun-24 11:00N 29°09' W 095°09'3 6.8
2018-Jun-24 10:30N 29°07' W 095°12'96 3.5
2018-Jun-23 07:18N 28°39' W 096°57'  

Dump ship's entire track history